Pagrindinis puslapis
METAR-TAF:

METAR-TAF

Oro uostai :

Río Hato, Panama

platuma: 08-22-33N, ilguma: 080-07-40W, Aukštis: 32 m

Dabartinis oras

Ataskaita buvo paskelbta 2 valandos ir 36 minutes, ne 02:00 UTC
Vėjas 6 kt iš Šiaurės/Šiaurės Vakarų
Temperatūra 26°C
Drėgmė 74%
Slėgis 1013 hPa
Matomumas 10 km arba daugiau
Mažai debesys ne aukštis 3000 ft

METAR: MPSM 220200Z 34006KT 9999 FEW030 26/21 Q1013

Laikas: 23:36 (04:36 UTC)

Prognozė

Ataskaita buvo paskelbta 5 valandos ir 36 minutes, ne 23:00 UTC
Prognozė galioja nuo 22 metu 00 UTC su 23 metu 06 UTC
Vėjas 8 kt iš Šiaurės
Matomumas 10 km arba daugiau
Mažai debesys ne aukštis 2000 ft
Laikinai
nuo 22 metu 19 UTC su 22 metu 21 UTC
Vėjas 18 kt iš Šiaurės

TAF: MPSM 212300Z 2200/2306 35008KT 9999 FEW020 TEMPO 2219/2221 01018KT

Orai ataskaitas ir orų prognozės (METAR, TAF).

turimą stotys yra geltonos ir raudonos taškus žemėlapyje.

Perkelti pele per norėdami pamatyti stoties vardą.

Tada spustelėkite, norėdami matyti oro stebėjimo ir prognozės.

Norėdami pakeisti žemėlapį: spustelėkite ant žalios mygtukų su juodo kryžiaus žemyn,; žalią mygtuką su brūkšneliu, jei norite nutolinti; arba žalių rodyklių gretimoms žemėlapius.


METAR-TAF: